Terminal Aerodrome Forecast
Issued by NWS Blacksburg, VA

Home | Current Version | Previous Version | Text Only | Print | Product List | Glossary On
Versions: 1 2 3 4 5 6 7 8 9 10 11 12 13 14 15 16 17 18 19 20 21 22
035
FTUS41 KRNK 121125
TAFDAN
TAF
KDAN 121125Z 1212/1312 09004KT P6SM OVC100
     FM121400 09005KT P6SM -SHSN OVC040
     FM122200 23010G20KT P6SM -SHSN BKN030
      TEMPO 1223/1303 -SHSN OVC030
     FM130400 30015G25KT P6SM SCT050=

USA.gov is the U.S. government's official web portal to all federal, state and local government web resources and services.